createdAt,value
2022-08-26T00:00:20.051Z,11.47
2022-08-26T00:02:48.563Z,11.27
2022-08-26T00:05:18.744Z,11.23
2022-08-26T00:07:47.421Z,10.40
2022-08-26T00:10:15.984Z,11.50
2022-08-26T00:12:44.468Z,11.93
2022-08-26T00:15:15.030Z,11.77
2022-08-26T00:17:43.473Z,11.23
2022-08-26T00:20:14.022Z,11.60
2022-08-26T00:22:44.186Z,11.80
2022-08-26T00:25:13.277Z,11.70
2022-08-26T00:27:43.975Z,11.53
2022-08-26T00:30:14.772Z,11.87
2022-08-26T00:32:44.075Z,12.00
2022-08-26T00:35:14.850Z,12.30
2022-08-26T00:37:45.035Z,11.70
2022-08-26T00:40:17.988Z,12.43
2022-08-26T00:42:46.426Z,12.77
2022-08-26T00:45:17.224Z,12.10
2022-08-26T00:47:48.409Z,11.40
2022-08-26T00:50:22.454Z,12.43
2022-08-26T00:52:53.456Z,12.37
2022-08-26T00:55:25.506Z,12.07
2022-08-26T00:58:03.825Z,11.63
2022-08-26T01:00:33.322Z,11.93
2022-08-26T01:03:03.192Z,12.53
2022-08-26T01:05:33.764Z,12.53
2022-08-26T01:08:03.689Z,12.20
2022-08-26T01:10:32.502Z,12.90
2022-08-26T01:13:09.959Z,12.07
2022-08-26T01:15:39.475Z,12.10
2022-08-26T01:18:10.718Z,11.77
2022-08-26T01:20:48.286Z,11.93
2022-08-26T01:23:18.403Z,11.40
2022-08-26T01:25:54.249Z,11.67
2022-08-26T01:28:25.275Z,12.30
2022-08-26T01:30:56.095Z,12.50
2022-08-26T01:33:29.530Z,12.27
2022-08-26T01:35:58.116Z,12.47
2022-08-26T01:38:28.847Z,11.90
2022-08-26T01:41:00.295Z,12.13
2022-08-26T01:43:30.543Z,12.67
2022-08-26T01:45:59.886Z,13.90
2022-08-26T01:48:32.626Z,14.17
2022-08-26T01:51:01.497Z,13.40
2022-08-26T01:53:31.825Z,12.73
2022-08-26T01:56:02.252Z,13.83
2022-08-26T01:58:36.138Z,13.27
2022-08-26T02:01:04.573Z,14.00
2022-08-26T02:03:33.478Z,13.53
2022-08-26T02:06:09.434Z,13.23
2022-08-26T02:08:42.322Z,13.90
2022-08-26T02:11:11.052Z,13.40
2022-08-26T02:13:42.658Z,12.10
2022-08-26T02:16:11.263Z,13.03
2022-08-26T02:18:43.147Z,14.07
2022-08-26T02:21:13.649Z,13.30
2022-08-26T02:23:43.615Z,12.70
2022-08-26T02:26:17.883Z,12.97
2022-08-26T02:28:51.300Z,12.63
2022-08-26T02:31:20.402Z,13.60
2022-08-26T02:33:49.336Z,14.77
2022-08-26T02:36:21.368Z,12.33
2022-08-26T02:38:51.008Z,13.50
2022-08-26T02:41:20.422Z,12.57
2022-08-26T02:43:51.497Z,12.83
2022-08-26T02:46:27.711Z,12.93
2022-08-26T02:48:58.043Z,13.20
2022-08-26T02:51:26.535Z,12.73
2022-08-26T02:53:56.908Z,12.10
2022-08-26T02:56:25.551Z,12.33
2022-08-26T02:58:53.868Z,12.43
2022-08-26T03:01:24.481Z,12.60
2022-08-26T03:03:52.996Z,12.97
2022-08-26T03:06:21.708Z,13.17
2022-08-26T03:08:50.826Z,13.50
2022-08-26T03:11:21.617Z,13.63
2022-08-26T03:13:50.287Z,14.77
2022-08-26T03:16:19.342Z,13.70
2022-08-26T03:18:52.441Z,13.60
2022-08-26T03:21:21.296Z,13.07
2022-08-26T03:23:49.925Z,13.23
2022-08-26T03:26:18.606Z,13.63
2022-08-26T03:29:06.168Z,13.20
2022-08-26T03:31:34.868Z,14.07
2022-08-26T03:34:03.622Z,12.70
2022-08-26T03:36:32.446Z,14.00
2022-08-26T03:39:03.562Z,12.10
2022-08-26T03:41:32.729Z,13.53
2022-08-26T03:44:02.645Z,13.53
2022-08-26T03:46:33.005Z,13.73
2022-08-26T03:49:02.178Z,13.80
2022-08-26T03:51:31.631Z,13.13
2022-08-26T03:54:03.044Z,13.47
2022-08-26T03:56:33.289Z,13.47
2022-08-26T03:59:03.202Z,12.90
2022-08-26T04:01:31.739Z,13.83
2022-08-26T04:04:01.563Z,14.33
2022-08-26T04:06:33.776Z,12.97
2022-08-26T04:09:04.241Z,12.13
2022-08-26T04:11:35.875Z,13.47
2022-08-26T04:14:10.917Z,12.10
2022-08-26T04:16:39.311Z,12.20
2022-08-26T04:19:07.753Z,13.23
2022-08-26T04:21:38.202Z,11.27
2022-08-26T04:24:10.289Z,12.00
2022-08-26T04:26:42.747Z,14.20
2022-08-26T04:29:16.360Z,12.87
2022-08-26T04:31:44.849Z,12.23
2022-08-26T04:34:14.035Z,11.67
2022-08-26T04:36:43.136Z,11.97
2022-08-26T04:39:16.588Z,11.70
2022-08-26T04:41:46.947Z,12.13
2022-08-26T04:44:18.732Z,12.57
2022-08-26T04:46:47.120Z,12.67
2022-08-26T04:49:15.560Z,11.80
2022-08-26T04:51:44.052Z,12.90
2022-08-26T04:54:14.119Z,11.73
2022-08-26T04:56:47.410Z,12.13
2022-08-26T04:59:18.597Z,12.50
2022-08-26T05:01:47.881Z,12.93
2022-08-26T05:04:19.076Z,12.50
2022-08-26T05:06:47.765Z,12.63
2022-08-26T05:09:16.287Z,13.10
2022-08-26T05:11:45.593Z,11.80
2022-08-26T05:14:18.921Z,13.60
2022-08-26T05:16:47.949Z,11.77
2022-08-26T05:19:19.130Z,12.10
2022-08-26T05:21:48.336Z,13.10
2022-08-26T05:24:17.782Z,13.03
2022-08-26T05:26:47.244Z,12.70
2022-08-26T05:29:18.290Z,12.13
2022-08-26T05:31:52.202Z,12.57
2022-08-26T05:34:20.808Z,13.87
2022-08-26T05:36:49.537Z,12.03
2022-08-26T05:39:17.984Z,12.23
2022-08-26T05:41:47.633Z,12.60
2022-08-26T05:44:20.989Z,13.73
2022-08-26T05:46:51.644Z,11.90
2022-08-26T05:49:20.317Z,12.60
2022-08-26T05:51:50.926Z,12.80
2022-08-26T05:54:21.371Z,12.67
2022-08-26T05:56:52.343Z,12.00
2022-08-26T05:59:24.094Z,12.13
2022-08-26T06:01:54.720Z,12.13
2022-08-26T06:04:24.919Z,12.17
2022-08-26T06:06:55.869Z,11.90
2022-08-26T06:09:24.331Z,12.47
2022-08-26T06:11:52.876Z,11.90
2022-08-26T06:14:23.863Z,12.53
2022-08-26T06:16:52.120Z,12.40
2022-08-26T06:19:21.654Z,11.90
2022-08-26T06:21:57.473Z,11.70
2022-08-26T06:24:43.378Z,11.83
2022-08-26T06:27:15.242Z,12.70
2022-08-26T06:29:45.111Z,11.50
2022-08-26T06:32:13.231Z,12.20
2022-08-26T06:34:41.804Z,12.27
2022-08-26T06:37:10.192Z,11.87
2022-08-26T06:39:41.150Z,11.83
2022-08-26T06:42:10.924Z,12.63
2022-08-26T06:44:41.484Z,12.53
2022-08-26T06:47:14.692Z,12.77
2022-08-26T06:49:44.331Z,12.47
2022-08-26T06:52:13.220Z,11.30
2022-08-26T06:54:43.216Z,11.07
2022-08-26T06:57:14.741Z,9.80
2022-08-26T06:59:45.301Z,11.13
2022-08-26T07:02:15.233Z,9.80
2022-08-26T07:04:47.764Z,9.50
2022-08-26T07:07:17.048Z,9.37
2022-08-26T07:09:46.783Z,10.60
2022-08-26T07:12:17.830Z,10.20
2022-08-26T07:14:48.183Z,11.00
2022-08-26T07:17:19.327Z,9.90
2022-08-26T07:19:49.909Z,9.10
2022-08-26T07:22:18.765Z,9.50
2022-08-26T07:24:47.541Z,10.40
2022-08-26T07:27:21.766Z,9.90
2022-08-26T07:29:50.544Z,10.40
2022-08-26T07:32:27.365Z,9.70
2022-08-26T07:34:55.872Z,10.17
2022-08-26T07:37:35.458Z,10.57
2022-08-26T07:40:06.529Z,9.87
2022-08-26T07:42:36.566Z,9.53
2022-08-26T07:45:13.767Z,9.40
2022-08-26T07:47:45.781Z,10.13
2022-08-26T07:50:14.430Z,10.00
2022-08-26T07:52:45.953Z,9.63
2022-08-26T07:55:18.464Z,9.20
2022-08-26T07:57:47.851Z,9.33
2022-08-26T08:00:24.640Z,8.67
2022-08-26T08:02:57.897Z,8.07
2022-08-26T08:05:27.274Z,9.37
2022-08-26T08:10:44.977Z,10.37
2022-08-26T08:13:18.980Z,10.00
2022-08-26T08:15:53.509Z,9.70
2022-08-26T08:18:23.640Z,10.00
2022-08-26T08:21:05.183Z,10.00
2022-08-26T08:23:45.967Z,9.53
2022-08-26T08:26:14.352Z,9.60
2022-08-26T08:32:00.096Z,8.77
2022-08-26T08:41:03.445Z,9.00
2022-08-26T08:46:42.447Z,10.33
2022-08-26T08:49:14.811Z,9.27
2022-08-26T09:09:23.603Z,9.53
2022-08-26T09:11:51.718Z,9.50
2022-08-26T09:14:22.043Z,9.33
2022-08-26T09:17:02.523Z,10.03
2022-08-26T09:19:36.001Z,9.63
2022-08-26T09:22:09.385Z,9.83
2022-08-26T09:25:04.533Z,9.20
2022-08-26T09:27:51.003Z,9.37
2022-08-26T09:30:27.011Z,9.67
2022-08-26T09:33:21.316Z,9.90
2022-08-26T09:41:37.029Z,9.83
2022-08-26T09:44:20.713Z,9.50
2022-08-26T09:46:56.152Z,9.83
2022-08-26T09:49:35.531Z,9.63
2022-08-26T09:52:18.734Z,9.70
2022-08-26T09:55:01.429Z,8.73
2022-08-26T09:57:35.645Z,9.10
2022-08-26T10:00:04.765Z,10.50
2022-08-26T10:02:47.798Z,10.10
2022-08-26T10:05:27.711Z,11.73
2022-08-26T10:07:58.376Z,10.67
2022-08-26T10:10:32.695Z,11.47
2022-08-26T10:13:18.822Z,11.30
2022-08-26T10:15:59.990Z,10.93
2022-08-26T10:18:34.093Z,10.90
2022-08-26T10:21:11.959Z,10.83
2022-08-26T10:23:43.454Z,10.60
2022-08-26T10:26:19.876Z,11.33
2022-08-26T10:28:53.461Z,11.03
2022-08-26T10:31:28.578Z,10.57
2022-08-26T10:34:00.102Z,11.83
2022-08-26T10:37:13.522Z,11.17
2022-08-26T10:39:45.998Z,10.00
2022-08-26T10:42:20.481Z,11.00
2022-08-26T10:44:53.863Z,10.20
2022-08-26T10:47:32.531Z,10.57
2022-08-26T10:50:03.329Z,10.60
2022-08-26T10:52:41.349Z,9.87
2022-08-26T10:55:17.895Z,10.20
2022-08-26T10:57:52.088Z,10.07
2022-08-26T11:00:44.027Z,9.57
2022-08-26T11:03:31.500Z,10.13
2022-08-26T11:06:24.023Z,9.40
2022-08-26T11:08:54.270Z,9.30
2022-08-26T11:11:45.373Z,8.73
2022-08-26T11:14:42.028Z,8.73
2022-08-26T11:17:59.999Z,14.07
2022-08-26T11:20:37.533Z,7.97
2022-08-26T11:23:45.119Z,10.07
2022-08-26T11:26:35.831Z,9.33
2022-08-26T11:29:13.539Z,7.17
2022-08-26T11:31:57.171Z,7.07
2022-08-26T11:34:58.361Z,7.00
2022-08-26T11:37:33.998Z,6.00
2022-08-26T11:40:05.289Z,6.67
2022-08-26T11:42:37.899Z,5.87
2022-08-26T11:45:18.542Z,6.20
2022-08-26T11:47:49.235Z,6.13
2022-08-26T11:50:23.575Z,5.50
2022-08-26T11:52:53.701Z,7.70
2022-08-26T11:55:23.324Z,6.37
2022-08-26T11:57:54.766Z,5.70
2022-08-26T12:00:25.149Z,5.50
2022-08-26T12:02:55.610Z,5.43
2022-08-26T12:05:31.135Z,6.30
2022-08-26T12:08:05.209Z,6.77
2022-08-26T12:10:35.890Z,6.00
2022-08-26T12:13:06.266Z,5.30
2022-08-26T12:15:35.589Z,5.63
2022-08-26T12:18:28.983Z,6.47
2022-08-26T12:20:59.739Z,6.37
2022-08-26T12:23:38.109Z,5.63
2022-08-26T12:26:12.366Z,5.97
2022-08-26T12:28:46.203Z,5.77
2022-08-26T12:31:26.952Z,5.47
2022-08-26T12:33:56.174Z,5.40
2022-08-26T12:36:31.451Z,5.03
2022-08-26T12:39:08.733Z,4.83
2022-08-26T12:41:42.356Z,6.23
2022-08-26T12:44:11.037Z,5.37
2022-08-26T12:46:39.427Z,4.67
2022-08-26T12:49:13.982Z,5.13
2022-08-26T12:52:01.541Z,4.93
2022-08-26T12:54:46.892Z,4.90
2022-08-26T12:57:15.394Z,5.50
2022-08-26T12:59:44.167Z,5.33
2022-08-26T13:02:12.647Z,5.60
2022-08-26T13:04:42.585Z,5.90
2022-08-26T13:07:27.143Z,5.40
2022-08-26T13:09:57.153Z,5.77
2022-08-26T13:12:30.588Z,5.50
2022-08-26T13:15:01.850Z,4.93
2022-08-26T13:17:35.009Z,5.90
2022-08-26T13:20:04.568Z,4.80
2022-08-26T13:22:36.071Z,4.83
2022-08-26T13:25:08.975Z,5.47
2022-08-26T13:27:37.384Z,4.60
2022-08-26T13:30:10.116Z,5.40
2022-08-26T13:32:43.702Z,5.60
2022-08-26T13:35:12.797Z,4.60
2022-08-26T13:37:52.092Z,4.57
2022-08-26T13:40:21.042Z,5.53
2022-08-26T13:42:50.138Z,5.53
2022-08-26T13:45:18.638Z,5.30
2022-08-26T13:47:49.070Z,5.43
2022-08-26T13:50:17.538Z,5.90
2022-08-26T13:52:47.589Z,5.97
2022-08-26T13:55:15.972Z,5.60
2022-08-26T13:57:44.512Z,5.27
2022-08-26T14:00:15.045Z,4.70
2022-08-26T14:02:43.925Z,4.87
2022-08-26T14:05:12.911Z,4.30
2022-08-26T14:07:42.047Z,5.17
2022-08-26T14:10:12.257Z,5.73
2022-08-26T14:12:41.757Z,4.97
2022-08-26T14:15:10.647Z,5.47
2022-08-26T14:17:38.996Z,4.43
2022-08-26T14:20:10.660Z,5.07
2022-08-26T14:22:43.777Z,4.87
2022-08-26T14:25:27.525Z,4.47
2022-08-26T14:27:56.855Z,5.03
2022-08-26T14:30:25.417Z,5.03
2022-08-26T14:33:03.162Z,5.00
2022-08-26T14:35:32.193Z,4.87
2022-08-26T14:38:00.910Z,5.07
2022-08-26T14:40:34.022Z,4.73
2022-08-26T14:43:10.790Z,4.97
2022-08-26T14:48:53.916Z,4.90
2022-08-26T14:54:22.209Z,4.60
2022-08-26T14:56:53.805Z,5.00
2022-08-26T15:05:16.978Z,4.20
2022-08-26T15:07:45.333Z,4.50
2022-08-26T15:10:15.385Z,3.53
2022-08-26T15:12:45.369Z,4.73
2022-08-26T15:15:18.979Z,4.40
2022-08-26T15:17:47.582Z,4.30
2022-08-26T15:23:06.221Z,5.33
2022-08-26T15:28:26.039Z,7.00
2022-08-26T15:34:02.725Z,6.57
2022-08-26T15:39:13.550Z,7.37
2022-08-26T15:41:46.506Z,6.73
2022-08-26T15:44:58.084Z,6.50
2022-08-26T15:47:27.889Z,6.30
2022-08-26T15:49:56.886Z,7.20
2022-08-26T15:52:25.985Z,7.00
2022-08-26T15:54:57.636Z,6.77
2022-08-26T15:57:26.181Z,6.53
2022-08-26T16:00:00.775Z,7.53
2022-08-26T16:02:36.784Z,6.50
2022-08-26T16:05:08.659Z,6.27
2022-08-26T16:07:37.151Z,6.77
2022-08-26T16:10:05.595Z,7.13
2022-08-26T16:12:33.918Z,6.37
2022-08-26T16:15:02.389Z,6.47
2022-08-26T16:17:30.704Z,7.13
2022-08-26T16:20:00.848Z,6.57
2022-08-26T16:22:29.306Z,6.80
2022-08-26T16:25:01.737Z,6.67
2022-08-26T16:27:30.223Z,6.60
2022-08-26T16:30:01.431Z,6.70
2022-08-26T16:32:31.360Z,6.80
2022-08-26T16:35:18.537Z,7.10
2022-08-26T16:37:51.700Z,6.93
2022-08-26T16:40:20.491Z,6.87
2022-08-26T16:42:49.159Z,6.80
2022-08-26T16:45:19.237Z,6.87
2022-08-26T16:47:52.001Z,6.07
2022-08-26T16:50:24.483Z,6.67
2022-08-26T16:52:55.650Z,6.70
2022-08-26T16:55:24.624Z,6.80
2022-08-26T16:57:53.278Z,6.60
2022-08-26T17:00:27.909Z,7.10
2022-08-26T17:02:56.506Z,6.53
2022-08-26T17:05:27.138Z,7.40
2022-08-26T17:07:55.818Z,6.87
2022-08-26T17:10:26.858Z,6.53
2022-08-26T17:12:55.668Z,6.97
2022-08-26T17:15:24.790Z,6.93
2022-08-26T17:17:53.500Z,6.83
2022-08-26T17:20:23.169Z,7.37
2022-08-26T17:22:54.341Z,7.53
2022-08-26T17:25:25.412Z,7.23
2022-08-26T17:27:54.309Z,7.73
2022-08-26T17:30:23.493Z,7.30
2022-08-26T17:32:52.987Z,6.70
2022-08-26T17:35:21.753Z,7.50
2022-08-26T17:37:49.855Z,7.67
2022-08-26T17:40:23.089Z,7.47
2022-08-26T17:42:51.620Z,7.70
2022-08-26T17:47:56.049Z,7.37
2022-08-26T17:50:25.426Z,7.30
2022-08-26T17:52:53.763Z,7.40
2022-08-26T17:55:23.542Z,7.83
2022-08-26T17:57:53.267Z,7.90
2022-08-26T18:00:26.688Z,7.60
2022-08-26T18:02:58.233Z,7.90
2022-08-26T18:05:26.668Z,7.40
2022-08-26T18:07:55.229Z,7.27
2022-08-26T18:10:26.063Z,6.90
2022-08-26T18:12:54.479Z,7.20
2022-08-26T18:15:22.988Z,7.47
2022-08-26T18:17:51.526Z,7.60
2022-08-26T18:20:20.709Z,7.67
2022-08-26T18:22:49.856Z,7.97
2022-08-26T18:25:19.015Z,8.67
2022-08-26T18:27:48.827Z,8.27
2022-08-26T18:30:20.664Z,8.67
2022-08-26T18:32:49.058Z,7.97
2022-08-26T18:35:17.833Z,7.70
2022-08-26T18:37:46.375Z,7.83
2022-08-26T18:40:16.288Z,7.83
2022-08-26T18:42:44.696Z,7.23
2022-08-26T18:45:17.648Z,7.83
2022-08-26T18:47:45.912Z,7.20
2022-08-26T18:50:14.232Z,7.30
2022-08-26T18:52:43.738Z,7.63
2022-08-26T18:55:12.353Z,8.13
2022-08-26T18:57:40.673Z,7.77
2022-08-26T19:00:10.579Z,7.80
2022-08-26T19:02:40.346Z,9.10
2022-08-26T19:05:09.479Z,5.53
2022-08-26T19:07:39.708Z,6.73
2022-08-26T19:10:08.524Z,5.63
2022-08-26T19:12:37.331Z,5.20
2022-08-26T19:15:06.236Z,4.30
2022-08-26T19:17:34.518Z,4.20
2022-08-26T19:20:04.418Z,3.80
2022-08-26T19:22:32.796Z,2.50
2022-08-26T19:25:01.361Z,2.73
2022-08-26T19:27:29.756Z,4.37
2022-08-26T19:29:58.457Z,3.80
2022-08-26T19:32:27.434Z,3.63
2022-08-26T19:34:55.721Z,4.70
2022-08-26T19:37:25.385Z,6.47
2022-08-26T19:39:53.414Z,6.50
2022-08-26T19:42:21.816Z,3.73
2022-08-26T19:45:11.052Z,4.77
2022-08-26T19:47:53.554Z,2.70
2022-08-26T19:50:22.486Z,3.80
2022-08-26T19:52:52.496Z,3.67
2022-08-26T19:55:22.496Z,3.70
2022-08-26T19:57:52.460Z,4.17
2022-08-26T20:00:24.750Z,3.50
2022-08-26T20:02:53.617Z,3.30
2022-08-26T20:05:23.625Z,3.13
2022-08-26T20:07:53.806Z,3.47
2022-08-26T20:13:07.099Z,3.00
2022-08-26T20:15:37.373Z,3.97
2022-08-26T20:18:25.685Z,4.97
2022-08-26T20:21:13.643Z,4.90
2022-08-26T20:23:45.586Z,4.00
2022-08-26T20:26:14.144Z,4.20
2022-08-26T20:28:42.481Z,4.20
2022-08-26T20:31:11.028Z,4.00
2022-08-26T20:33:46.192Z,3.97
2022-08-26T20:36:15.930Z,4.27
2022-08-26T20:41:41.546Z,4.70
2022-08-26T20:44:10.948Z,4.37
2022-08-26T20:46:40.722Z,4.00
2022-08-26T20:49:09.179Z,4.80
2022-08-26T20:51:40.600Z,4.37
2022-08-26T20:54:14.032Z,4.77
2022-08-26T20:56:42.624Z,4.97
2022-08-26T20:59:11.164Z,4.83
2022-08-26T21:01:42.388Z,5.70
2022-08-26T21:04:13.989Z,4.70
2022-08-26T21:06:46.605Z,4.07
2022-08-26T21:09:25.817Z,3.63
2022-08-26T21:11:55.244Z,4.77
2022-08-26T21:14:25.981Z,4.47
2022-08-26T21:16:54.836Z,4.30
2022-08-26T21:19:23.318Z,5.57
2022-08-26T21:21:51.963Z,4.90
2022-08-26T21:24:20.326Z,4.23
2022-08-26T21:26:50.106Z,4.43
2022-08-26T21:29:19.050Z,4.37
2022-08-26T21:31:47.669Z,5.97
2022-08-26T21:34:16.395Z,5.53
2022-08-26T21:36:44.753Z,5.50
2022-08-26T21:39:13.230Z,5.93
2022-08-26T21:41:42.029Z,6.30
2022-08-26T21:44:12.101Z,5.33
2022-08-26T21:46:40.843Z,5.47
2022-08-26T21:49:10.668Z,5.17
2022-08-26T21:51:41.340Z,5.73
2022-08-26T21:54:11.391Z,5.20
2022-08-26T21:56:46.607Z,5.73
2022-08-26T21:59:17.947Z,5.40
2022-08-26T22:01:46.294Z,5.03
2022-08-26T22:04:14.703Z,5.20
2022-08-26T22:06:44.701Z,5.20
2022-08-26T22:09:13.989Z,5.00
2022-08-26T22:11:42.862Z,5.33
2022-08-26T22:14:11.422Z,4.77
2022-08-26T22:16:41.214Z,4.80
2022-08-26T22:19:19.849Z,4.60
2022-08-26T22:21:49.455Z,4.63
2022-08-26T22:24:17.779Z,5.33
2022-08-26T22:26:46.090Z,5.27
2022-08-26T22:29:14.626Z,5.43
2022-08-26T22:31:44.402Z,5.50
2022-08-26T22:34:15.174Z,5.37
2022-08-26T22:36:46.337Z,5.77
2022-08-26T22:39:15.581Z,6.07
2022-08-26T22:41:44.110Z,6.93
2022-08-26T22:44:13.430Z,7.60
2022-08-26T22:46:44.306Z,7.57
2022-08-26T22:49:15.789Z,8.10
2022-08-26T22:51:44.610Z,8.27
2022-08-26T22:54:13.542Z,8.10
2022-08-26T22:56:42.034Z,8.47
2022-08-26T22:59:10.615Z,8.07
2022-08-26T23:01:41.336Z,7.63
2022-08-26T23:04:12.210Z,7.90
2022-08-26T23:06:43.084Z,7.83
2022-08-26T23:09:11.630Z,8.17
2022-08-26T23:11:42.172Z,8.17
2022-08-26T23:14:11.094Z,8.57
2022-08-26T23:16:41.926Z,9.30
2022-08-26T23:19:12.029Z,9.37
2022-08-26T23:21:40.338Z,9.67
2022-08-26T23:24:09.077Z,9.07
2022-08-26T23:26:38.430Z,9.30
2022-08-26T23:29:06.805Z,9.10
2022-08-26T23:31:35.376Z,10.07
2022-08-26T23:34:21.116Z,9.30
2022-08-26T23:36:51.058Z,8.50
2022-08-26T23:39:19.393Z,9.40
2022-08-26T23:41:48.055Z,8.70
2022-08-26T23:44:16.783Z,8.80
2022-08-26T23:46:45.219Z,9.17
2022-08-26T23:49:13.517Z,9.23
2022-08-26T23:51:59.403Z,9.27
2022-08-26T23:54:29.165Z,9.40
2022-08-26T23:56:57.551Z,9.10
2022-08-26T23:59:27.301Z,9.00
